Time;durP1;ratioP1;P1;durP2;ratioP2;P2;SDS_P1;SDS_P2;PMS_P1;PMS_P2;Temp;Humidity;BMP_temperature;BMP_pressure;BME280_temperature;BME280_humidity;BME280_pressure;Samples;Min_cycle;Max_cycle;Signal;HPM_P1;HPM_P2
2022/08/14 00:01:04;;;;;;;3.03;0.60;;;15.00;50.90;;;;;;5032185;28;20731;-77
2022/08/14 00:03:31;;;;;;;0.80;0.80;;;15.00;50.70;;;;;;5049051;28;20242;-78
2022/08/14 00:06:02;;;;;;;0.60;0.60;;;15.20;50.70;;;;;;5051674;28;20512;-76
2022/08/14 00:08:30;;;;;;;2.43;0.80;;;15.20;50.60;;;;;;5028661;28;20273;-77
2022/08/14 00:10:57;;;;;;;1.23;1.13;;;15.00;51.40;;;;;;5026063;28;20185;-75
2022/08/14 00:13:29;;;;;;;0.73;0.60;;;15.00;51.80;;;;;;5031097;28;20583;-83
2022/08/14 00:15:59;;;;;;;0.83;0.70;;;15.20;50.90;;;;;;5017427;28;20820;-77
2022/08/14 00:18:28;;;;;;;0.70;0.70;;;15.30;51.40;;;;;;5013289;28;20178;-80
2022/08/14 00:20:56;;;;;;;2.37;0.80;;;15.10;51.10;;;;;;5023736;28;20176;-78
2022/08/14 00:23:24;;;;;;;0.77;0.70;;;15.00;51.90;;;;;;5054762;28;20174;-78
2022/08/14 00:25:54;;;;;;;0.77;0.77;;;14.80;51.90;;;;;;5037432;28;20181;-78
2022/08/14 00:28:25;;;;;;;1.00;0.50;;;14.80;51.90;;;;;;5042318;28;20172;-79
2022/08/14 00:30:58;;;;;;;1.17;0.70;;;14.90;51.90;;;;;;5021070;28;20188;-80
2022/08/14 00:33:27;;;;;;;0.60;0.60;;;15.10;51.40;;;;;;5015944;28;20223;-75
2022/08/14 00:35:55;;;;;;;0.60;0.60;;;15.40;50.50;;;;;;5030433;28;20196;-78
2022/08/14 00:38:22;;;;;;;0.93;0.77;;;15.70;50.90;;;;;;5019999;28;20189;-77
2022/08/14 00:40:50;;;;;;;1.40;0.80;;;15.80;50.20;;;;;;5020788;28;20548;-78
2022/08/14 00:43:18;;;;;;;0.70;0.70;;;15.70;48.50;;;;;;5035374;28;20179;-80
2022/08/14 00:45:46;;;;;;;1.57;1.40;;;15.50;47.90;;;;;;5040163;28;20184;-80
2022/08/14 00:48:17;;;;;;;1.10;1.00;;;15.50;47.70;;;;;;5028576;28;20728;-76
2022/08/14 00:50:45;;;;;;;0.80;0.60;;;15.60;48.30;;;;;;5015393;28;20177;-78
2022/08/14 00:53:15;;;;;;;2.00;0.73;;;15.70;47.40;;;;;;5038171;28;20287;-82
2022/08/14 00:55:43;;;;;;;0.73;0.70;;;16.00;47.30;;;;;;5035353;28;20287;-76
2022/08/14 01:01:13;;;;;;;2.27;0.83;;;16.30;45.80;;;;;;5014147;28;20196;-78
2022/08/14 01:03:41;;;;;;;0.70;0.70;;;16.30;45.30;;;;;;5054759;28;20259;-83
2022/08/14 01:06:10;;;;;;;0.70;0.70;;;16.20;45.60;;;;;;5032685;28;20182;-80
2022/08/14 01:08:40;;;;;;;0.77;0.67;;;15.90;45.20;;;;;;5015564;28;20258;-77
2022/08/14 01:11:09;;;;;;;1.27;0.50;;;15.80;46.00;;;;;;5033877;28;20234;-74
2022/08/14 01:13:39;;;;;;;0.90;0.60;;;15.70;46.70;;;;;;5035653;28;20239;-76
2022/08/14 01:16:09;;;;;;;0.87;0.60;;;15.80;46.10;;;;;;5041069;28;20185;-81
2022/08/14 01:21:33;;;;;;;0.90;0.70;;;15.80;44.80;;;;;;5046375;28;20337;-79
2022/08/14 01:24:02;;;;;;;0.70;0.70;;;15.90;44.80;;;;;;5039576;28;20176;-80
2022/08/14 01:26:29;;;;;;;0.60;0.60;;;15.90;44.30;;;;;;5045579;28;20213;-75
2022/08/14 01:28:58;;;;;;;1.27;0.90;;;16.10;43.90;;;;;;5036458;28;20214;-78
2022/08/14 01:31:31;;;;;;;1.10;0.70;;;16.30;43.30;;;;;;5030565;28;20181;-83
2022/08/14 01:34:00;;;;;;;2.90;0.90;;;16.30;42.60;;;;;;5042945;28;20217;-78
2022/08/14 01:36:36;;;;;;;0.90;0.70;;;16.10;43.20;;;;;;5031862;28;20166;-77
2022/08/14 01:39:16;;;;;;;2.80;1.30;;;16.10;42.90;;;;;;5035695;28;20251;-79
2022/08/14 01:41:55;;;;;;;0.93;0.70;;;16.20;42.30;;;;;;5047325;28;20188;-81
2022/08/14 01:44:29;;;;;;;3.30;1.03;;;16.00;41.80;;;;;;5049478;28;20542;-82
2022/08/14 01:46:59;;;;;;;0.60;0.60;;;16.40;42.60;;;;;;5033380;28;20534;-76
2022/08/14 01:49:27;;;;;;;0.70;0.70;;;16.50;41.40;;;;;;5040627;28;20194;-76
2022/08/14 01:51:55;;;;;;;2.50;1.63;;;16.40;41.00;;;;;;5024589;28;20193;-78
2022/08/14 01:54:24;;;;;;;1.00;0.60;;;16.70;41.60;;;;;;5026606;28;20179;-80
2022/08/14 01:56:56;;;;;;;0.83;0.70;;;16.80;40.00;;;;;;5023585;28;20193;-81
2022/08/14 01:59:31;;;;;;;0.77;0.77;;;16.80;39.90;;;;;;5027443;28;20200;-79
2022/08/14 02:02:02;;;;;;;0.73;0.70;;;16.60;40.70;;;;;;5027199;28;20621;-78
2022/08/14 02:04:33;;;;;;;0.70;0.70;;;16.40;41.00;;;;;;5025649;28;20653;-79
2022/08/14 02:07:01;;;;;;;0.53;0.50;;;16.70;39.80;;;;;;5026572;28;20210;-81
2022/08/14 02:09:34;;;;;;;0.63;0.60;;;17.00;40.10;;;;;;5034202;28;20183;-78
2022/08/14 02:12:02;;;;;;;0.60;0.60;;;17.10;39.30;;;;;;5034213;28;20238;-78
2022/08/14 02:14:30;;;;;;;0.60;0.60;;;17.10;39.50;;;;;;5033676;28;20195;-72
2022/08/14 02:16:58;;;;;;;2.60;0.73;;;17.50;39.50;;;;;;5035546;28;20181;-79
2022/08/14 02:19:29;;;;;;;1.43;0.70;;;17.60;38.80;;;;;;5033468;28;20187;-79
2022/08/14 02:21:58;;;;;;;0.80;0.70;;;17.50;38.80;;;;;;5031306;28;20187;-77
2022/08/14 02:24:29;;;;;;;1.27;0.70;;;17.80;38.70;;;;;;5034895;28;20535;-79
2022/08/14 02:26:58;;;;;;;0.60;0.60;;;17.90;38.00;;;;;;5032371;28;20176;-76
2022/08/14 02:29:29;;;;;;;0.70;0.70;;;18.00;37.80;;;;;;5030579;28;20184;-84
2022/08/14 02:31:59;;;;;;;0.90;0.60;;;17.80;38.60;;;;;;5036462;28;20185;-81
2022/08/14 02:34:35;;;;;;;0.60;0.60;;;17.80;38.60;;;;;;5033889;28;20189;-80
2022/08/14 02:37:05;;;;;;;1.70;0.70;;;17.90;39.40;;;;;;5031822;28;20216;-81
2022/08/14 02:39:39;;;;;;;0.80;0.60;;;17.70;39.60;;;;;;5030169;28;20277;-77
2022/08/14 02:42:09;;;;;;;0.90;0.70;;;17.20;39.90;;;;;;5031213;28;20184;-83
2022/08/14 02:44:38;;;;;;;0.70;0.50;;;16.60;41.60;;;;;;5028698;28;20282;-85
2022/08/14 02:47:06;;;;;;;0.90;0.67;;;17.20;41.40;;;;;;5027196;28;20556;-78
2022/08/14 02:49:35;;;;;;;0.93;0.60;;;17.80;39.50;;;;;;5032478;28;20223;-78
2022/08/14 02:52:05;;;;;;;0.70;0.70;;;17.80;39.40;;;;;;5026197;28;20808;-83
2022/08/14 02:54:33;;;;;;;0.83;0.60;;;18.10;39.70;;;;;;5028463;28;20241;-77
2022/08/14 02:57:04;;;;;;;0.60;0.60;;;18.00;38.90;;;;;;5030564;28;20901;-76
2022/08/14 02:59:33;;;;;;;0.60;0.60;;;18.30;39.20;;;;;;5035194;28;20205;-78
2022/08/14 03:02:03;;;;;;;0.67;0.60;;;18.50;39.10;;;;;;5036061;28;20271;-78
2022/08/14 03:04:30;;;;;;;0.70;0.53;;;19.00;38.40;;;;;;5033690;28;20284;-82
2022/08/14 03:06:58;;;;;;;1.60;0.57;;;18.70;38.60;;;;;;5031243;28;20190;-78
2022/08/14 03:09:26;;;;;;;0.73;0.67;;;18.80;37.60;;;;;;5031566;28;20184;-80
2022/08/14 03:11:54;;;;;;;0.50;0.50;;;18.70;38.20;;;;;;5028617;28;20212;-77
2022/08/14 03:14:24;;;;;;;1.47;0.60;;;19.10;37.20;;;;;;5030115;28;20685;-80
2022/08/14 03:16:52;;;;;;;2.00;0.50;;;18.90;37.40;;;;;;5029388;28;20184;-83
2022/08/14 03:19:19;;;;;;;0.70;0.70;;;18.70;38.20;;;;;;5029213;28;20199;-82
2022/08/14 03:21:47;;;;;;;0.80;0.60;;;18.70;38.00;;;;;;5030725;28;20185;-80
2022/08/14 03:24:16;;;;;;;1.10;0.70;;;18.70;38.40;;;;;;5029434;28;20532;-78
2022/08/14 03:26:45;;;;;;;0.97;0.90;;;19.00;38.10;;;;;;5028870;28;20650;-80
2022/08/14 03:29:18;;;;;;;1.80;0.70;;;19.50;38.20;;;;;;5029277;28;20180;-77
2022/08/14 03:31:46;;;;;;;1.33;1.00;;;19.50;37.40;;;;;;5031004;28;20651;-75
2022/08/14 03:34:13;;;;;;;0.60;0.60;;;19.50;37.10;;;;;;5023040;28;20220;-83
2022/08/14 03:36:43;;;;;;;0.50;0.50;;;18.80;38.60;;;;;;5031294;28;20524;-82
2022/08/14 03:39:12;;;;;;;0.80;0.70;;;19.00;37.80;;;;;;5031930;28;20581;-78
2022/08/14 03:41:40;;;;;;;0.70;0.67;;;18.60;38.50;;;;;;5031072;28;20185;-77
2022/08/14 03:44:07;;;;;;;8.60;0.93;;;18.90;38.80;;;;;;5030500;28;20188;-78
2022/08/14 03:46:37;;;;;;;2.13;0.70;;;19.00;38.50;;;;;;5034398;28;20203;-77
2022/08/14 03:49:06;;;;;;;0.50;0.50;;;18.70;39.00;;;;;;5032965;28;20271;-79
2022/08/14 03:51:34;;;;;;;1.87;0.60;;;18.60;37.90;;;;;;5036333;28;20187;-79
2022/08/14 03:54:11;;;;;;;1.43;0.50;;;19.00;37.60;;;;;;5028207;28;20223;-76
2022/08/14 03:56:43;;;;;;;0.73;0.50;;;19.10;36.70;;;;;;5035000;28;20192;-78
2022/08/14 03:59:12;;;;;;;0.70;0.53;;;19.20;36.90;;;;;;5035559;28;20247;-79
2022/08/14 04:01:40;;;;;;;1.73;0.50;;;19.40;36.40;;;;;;5034763;28;20205;-75
2022/08/14 04:04:09;;;;;;;0.50;0.50;;;20.00;36.60;;;;;;5035892;28;20666;-76
2022/08/14 04:06:37;;;;;;;1.33;0.50;;;20.00;36.10;;;;;;5045498;28;20521;-77
2022/08/14 04:09:06;;;;;;;0.40;0.40;;;20.10;35.40;;;;;;5056031;28;20555;-77
2022/08/14 04:11:35;;;;;;;0.47;0.47;;;20.20;35.40;;;;;;5054498;28;20176;-77
2022/08/14 04:14:04;;;;;;;0.30;0.30;;;20.20;35.50;;;;;;5055521;28;20627;-80
2022/08/14 04:16:32;;;;;;;0.37;0.37;;;20.30;35.50;;;;;;5055873;28;20168;-80
2022/08/14 04:19:02;;;;;;;0.47;0.47;;;20.50;35.00;;;;;;5036805;28;20189;-75
2022/08/14 04:21:31;;;;;;;0.40;0.40;;;20.70;35.30;;;;;;5023644;28;20266;-81
2022/08/14 04:24:00;;;;;;;0.40;0.40;;;20.90;34.70;;;;;;5055450;28;20224;-79
2022/08/14 04:26:30;;;;;;;0.63;0.47;;;20.60;35.30;;;;;;5055403;28;20567;-79
2022/08/14 04:28:57;;;;;;;0.40;0.40;;;19.30;37.30;;;;;;5053068;28;20657;-78
2022/08/14 04:31:26;;;;;;;0.63;0.30;;;18.50;38.70;;;;;;5055430;28;20269;-75
2022/08/14 04:33:54;;;;;;;0.47;0.47;;;18.10;40.10;;;;;;5054726;28;20216;-77
2022/08/14 04:36:21;;;;;;;0.50;0.50;;;18.60;39.40;;;;;;5031716;28;20194;-81
2022/08/14 04:44:20;;;;;;;0.97;0.50;;;20.20;36.30;;;;;;5044573;28;20214;-79
2022/08/14 04:49:35;;;;;;;0.50;0.50;;;20.70;35.40;;;;;;5027357;28;20239;-83
2022/08/14 04:52:03;;;;;;;0.60;0.60;;;21.00;35.60;;;;;;5016156;28;20189;-82
2022/08/14 04:54:31;;;;;;;1.47;0.67;;;20.30;36.10;;;;;;5015716;28;20185;-75
2022/08/14 04:56:58;;;;;;;0.70;0.40;;;20.10;36.60;;;;;;5034453;28;20177;-76
2022/08/14 04:59:25;;;;;;;1.43;0.50;;;19.60;38.40;;;;;;5035804;28;20246;-78
2022/08/14 05:01:53;;;;;;;1.13;0.60;;;18.80;39.20;;;;;;5032936;28;20610;-80
2022/08/14 05:04:23;;;;;;;1.10;0.80;;;19.80;37.60;;;;;;5029117;28;20192;-78
2022/08/14 05:06:53;;;;;;;0.60;0.50;;;20.60;35.90;;;;;;5030008;28;20630;-75
2022/08/14 05:09:20;;;;;;;0.50;0.50;;;19.50;37.70;;;;;;5042944;28;20553;-78
2022/08/14 05:11:49;;;;;;;0.50;0.40;;;19.60;37.50;;;;;;5043130;28;20273;-79
2022/08/14 05:14:17;;;;;;;1.33;0.40;;;19.60;37.90;;;;;;5039843;28;20221;-82
2022/08/14 05:16:45;;;;;;;2.10;0.80;;;18.90;39.10;;;;;;5023470;28;20188;-74
2022/08/14 05:19:13;;;;;;;1.43;0.80;;;18.40;40.50;;;;;;5042522;28;20184;-79
2022/08/14 05:21:43;;;;;;;0.50;0.50;;;18.00;41.50;;;;;;5054421;28;20176;-76
2022/08/14 05:24:11;;;;;;;1.83;0.63;;;18.30;41.50;;;;;;5050803;28;20179;-81
2022/08/14 05:26:40;;;;;;;4.53;0.50;;;19.30;39.90;;;;;;5045223;28;20178;-77
2022/08/14 05:29:08;;;;;;;0.40;0.40;;;19.70;38.40;;;;;;5041313;28;20251;-78
2022/08/14 05:31:39;;;;;;;3.07;0.40;;;20.00;37.80;;;;;;5038921;28;20204;-75
2022/08/14 05:34:10;;;;;;;0.83;0.60;;;20.00;37.50;;;;;;5041053;28;20571;-75
2022/08/14 05:36:37;;;;;;;0.30;0.30;;;20.70;36.50;;;;;;5039178;28;20260;-76
2022/08/14 05:39:06;;;;;;;0.53;0.47;;;20.70;36.10;;;;;;5049377;28;20231;-76
2022/08/14 05:41:33;;;;;;;0.60;0.60;;;21.00;35.90;;;;;;5052866;28;20174;-77
2022/08/14 05:44:01;;;;;;;0.50;0.50;;;20.60;37.10;;;;;;5052198;28;20182;-75
2022/08/14 05:46:28;;;;;;;0.50;0.50;;;20.30;36.40;;;;;;5052673;28;20180;-78
2022/08/14 05:48:58;;;;;;;0.40;0.40;;;20.50;36.00;;;;;;5035643;28;20177;-80
2022/08/14 05:51:27;;;;;;;0.60;0.60;;;20.80;34.50;;;;;;5024865;28;20222;-78
2022/08/14 05:53:55;;;;;;;1.67;0.50;;;20.10;35.60;;;;;;5039253;28;20319;-78
2022/08/14 05:56:24;;;;;;;0.50;0.50;;;20.30;35.80;;;;;;5049858;28;20253;-76
2022/08/14 05:58:52;;;;;;;0.60;0.60;;;20.20;36.30;;;;;;5045446;28;20180;-77
2022/08/14 06:01:20;;;;;;;1.23;0.80;;;20.40;36.50;;;;;;5050630;28;20176;-76
2022/08/14 06:03:47;;;;;;;0.50;0.50;;;20.50;36.30;;;;;;5045239;28;20188;-79
2022/08/14 06:06:15;;;;;;;0.60;0.60;;;20.20;35.50;;;;;;5045866;28;20233;-80
2022/08/14 06:08:42;;;;;;;0.43;0.43;;;20.00;35.90;;;;;;5031613;28;20726;-76
2022/08/14 06:11:10;;;;;;;0.60;0.60;;;19.70;36.90;;;;;;5039356;28;20183;-77
2022/08/14 06:13:42;;;;;;;0.93;0.60;;;19.50;37.60;;;;;;5048714;28;20265;-76
2022/08/14 06:16:10;;;;;;;0.57;0.57;;;18.50;39.70;;;;;;5046517;28;20605;-76
2022/08/14 06:18:38;;;;;;;0.50;0.40;;;18.30;40.00;;;;;;5045397;28;20207;-77
2022/08/14 06:21:06;;;;;;;0.60;0.60;;;17.70;41.60;;;;;;5046004;28;20275;-76
2022/08/14 06:23:33;;;;;;;1.77;0.60;;;17.50;42.30;;;;;;5042775;28;20179;-79
2022/08/14 06:26:04;;;;;;;0.73;0.60;;;17.40;42.50;;;;;;5053144;28;20329;-76
2022/08/14 06:28:31;;;;;;;0.50;0.50;;;17.50;42.90;;;;;;5052659;28;20187;-77
2022/08/14 06:30:58;;;;;;;1.27;0.77;;;17.40;42.90;;;;;;5042197;28;20172;-79
2022/08/14 06:33:26;;;;;;;1.30;0.57;;;17.30;43.40;;;;;;5041502;28;20223;-79
2022/08/14 06:35:53;;;;;;;0.60;0.60;;;17.20;43.90;;;;;;5052868;28;20165;-82
2022/08/14 06:38:24;;;;;;;0.77;0.77;;;17.00;43.60;;;;;;5053075;28;20180;-75
2022/08/14 06:40:52;;;;;;;0.83;0.67;;;16.80;44.60;;;;;;5047668;28;20176;-80
2022/08/14 06:43:20;;;;;;;0.60;0.60;;;16.70;44.30;;;;;;5033976;28;20833;-76
2022/08/14 06:45:50;;;;;;;0.50;0.50;;;16.60;44.10;;;;;;5053411;28;20171;-79
2022/08/14 06:48:23;;;;;;;0.60;0.60;;;16.50;44.70;;;;;;5046837;28;20206;-79
2022/08/14 06:50:52;;;;;;;1.53;0.97;;;16.40;45.20;;;;;;5046917;28;20273;-77
2022/08/14 06:53:21;;;;;;;0.90;0.90;;;16.40;46.00;;;;;;5046051;28;20672;-82
2022/08/14 06:55:49;;;;;;;1.20;0.80;;;16.40;46.40;;;;;;5046083;28;20582;-80
2022/08/14 06:58:18;;;;;;;1.60;0.90;;;16.30;46.30;;;;;;5052807;28;20258;-80
2022/08/14 07:06:18;;;;;;;0.60;0.60;;;16.10;46.20;;;;;;5052707;28;20233;-82
2022/08/14 07:08:46;;;;;;;1.07;0.87;;;15.90;46.20;;;;;;5052971;28;20540;-80
2022/08/14 07:11:13;;;;;;;1.47;1.00;;;15.90;46.40;;;;;;5041230;28;20631;-85
2022/08/14 07:13:41;;;;;;;1.20;1.10;;;15.90;46.70;;;;;;5050877;28;20225;-83
2022/08/14 07:16:11;;;;;;;2.67;0.93;;;15.80;46.90;;;;;;5034988;28;20180;-80
2022/08/14 07:18:40;;;;;;;2.77;0.70;;;15.70;47.20;;;;;;5044680;28;20514;-83
2022/08/14 07:21:08;;;;;;;0.70;0.70;;;15.70;47.30;;;;;;5031465;28;20180;-77
2022/08/14 07:23:36;;;;;;;1.77;0.80;;;15.70;47.90;;;;;;5040049;28;20189;-78
2022/08/14 07:26:05;;;;;;;1.80;1.07;;;15.60;48.00;;;;;;5052154;28;20186;-78
2022/08/14 07:28:38;;;;;;;1.10;1.00;;;15.50;48.80;;;;;;5051791;28;20210;-80
2022/08/14 07:31:09;;;;;;;1.10;1.00;;;15.40;49.20;;;;;;5044006;28;20180;-75
2022/08/14 07:33:41;;;;;;;2.77;1.10;;;15.30;49.80;;;;;;5052440;28;20577;-77
2022/08/14 07:36:11;;;;;;;1.63;1.33;;;15.20;50.40;;;;;;5043558;28;20184;-80
2022/08/14 07:38:42;;;;;;;1.13;1.00;;;15.20;50.80;;;;;;5047317;28;20219;-76
2022/08/14 07:41:11;;;;;;;1.47;1.30;;;15.10;51.00;;;;;;5044320;28;20184;-76
2022/08/14 07:43:40;;;;;;;0.80;0.80;;;15.10;50.90;;;;;;5040269;28;20184;-84
2022/08/14 07:46:07;;;;;;;1.03;0.93;;;15.00;51.50;;;;;;5052417;28;20692;-76
2022/08/14 07:48:42;;;;;;;1.03;0.90;;;14.90;51.50;;;;;;5050268;28;20184;-77
2022/08/14 07:51:11;;;;;;;0.70;0.70;;;14.90;50.80;;;;;;5032720;28;20189;-78
2022/08/14 07:53:39;;;;;;;0.77;0.77;;;14.90;50.90;;;;;;5032928;28;20281;-77
2022/08/14 07:56:09;;;;;;;0.87;0.80;;;14.80;50.90;;;;;;5046781;28;20253;-78
2022/08/14 07:58:37;;;;;;;1.60;1.40;;;14.80;51.60;;;;;;5042986;28;20540;-79
2022/08/14 08:01:06;;;;;;;1.60;1.43;;;14.80;52.10;;;;;;5034935;28;20539;-82
2022/08/14 08:03:37;;;;;;;1.63;1.20;;;14.60;52.10;;;;;;5048455;28;20259;-76
2022/08/14 08:06:04;;;;;;;0.80;0.80;;;14.50;52.20;;;;;;5027303;28;20672;-76
2022/08/14 08:08:32;;;;;;;0.87;0.87;;;14.50;52.90;;;;;;5023276;28;20177;-76
2022/08/14 08:11:01;;;;;;;1.10;1.00;;;14.50;53.10;;;;;;5038356;28;20180;-74
2022/08/14 08:13:32;;;;;;;1.40;1.17;;;14.40;53.50;;;;;;5051433;28;20558;-77
2022/08/14 08:16:01;;;;;;;1.30;1.20;;;14.40;54.10;;;;;;5049979;28;20177;-75
2022/08/14 08:18:29;;;;;;;1.43;1.33;;;14.30;54.30;;;;;;5048554;28;20215;-75
2022/08/14 08:20:58;;;;;;;1.00;0.93;;;14.30;54.30;;;;;;5033401;28;20177;-75
2022/08/14 08:23:27;;;;;;;1.87;1.00;;;14.30;54.10;;;;;;5041266;28;20253;-76
2022/08/14 08:25:57;;;;;;;1.00;0.90;;;14.20;54.40;;;;;;5045418;28;20268;-82
2022/08/14 08:28:30;;;;;;;0.97;0.93;;;14.20;54.30;;;;;;5051736;28;20524;-79
2022/08/14 08:31:03;;;;;;;1.60;1.17;;;14.20;54.60;;;;;;5041872;28;20242;-78
2022/08/14 08:33:32;;;;;;;1.30;1.00;;;14.10;55.20;;;;;;5054824;28;20212;-78
2022/08/14 08:36:07;;;;;;;1.53;1.30;;;14.10;54.70;;;;;;5048184;28;20190;-79
2022/08/14 08:38:35;;;;;;;1.67;1.10;;;14.00;55.10;;;;;;5055402;28;20211;-78
2022/08/14 08:41:02;;;;;;;2.17;1.40;;;14.00;55.20;;;;;;5055367;28;20180;-79
2022/08/14 08:43:35;;;;;;;1.73;1.30;;;13.90;55.30;;;;;;5054124;28;20573;-78
2022/08/14 08:46:08;;;;;;;2.00;1.40;;;13.90;55.40;;;;;;5041934;28;20184;-78
2022/08/14 08:48:56;;;;;;;2.20;1.40;;;13.80;55.40;;;;;;5038173;28;20188;-77
2022/08/14 08:51:27;;;;;;;1.10;1.00;;;13.90;55.00;;;;;;5047917;28;20259;-79
2022/08/14 08:54:21;;;;;;;4.53;1.20;;;13.80;54.60;;;;;;5040869;28;20224;-77
2022/08/14 08:56:51;;;;;;;2.03;1.57;;;13.80;54.80;;;;;;5054791;28;20230;-79
2022/08/14 08:59:27;;;;;;;1.40;1.30;;;13.80;55.10;;;;;;5047997;28;20173;-79
2022/08/14 09:01:57;;;;;;;1.50;1.40;;;13.80;55.00;;;;;;5041534;28;20222;-77
2022/08/14 09:04:33;;;;;;;1.70;1.60;;;13.80;54.90;;;;;;5038176;28;20204;-78
2022/08/14 09:07:00;;;;;;;1.90;1.70;;;13.70;55.50;;;;;;5054869;28;20165;-78
2022/08/14 09:09:30;;;;;;;2.23;2.03;;;13.70;55.90;;;;;;5053560;28;20241;-75
2022/08/14 09:12:00;;;;;;;3.83;1.97;;;13.60;55.60;;;;;;5051301;28;20189;-78
2022/08/14 09:14:30;;;;;;;2.57;2.37;;;13.60;55.40;;;;;;5041216;28;20279;-81
2022/08/14 09:16:59;;;;;;;1.80;1.60;;;13.50;56.30;;;;;;5044647;28;20249;-80
2022/08/14 09:19:27;;;;;;;1.43;1.20;;;13.50;55.90;;;;;;5039258;28;20259;-78
2022/08/14 09:21:55;;;;;;;2.50;1.10;;;13.50;55.50;;;;;;5051690;28;20187;-80
2022/08/14 09:24:22;;;;;;;0.90;0.90;;;13.50;55.50;;;;;;5044800;28;20180;-79
2022/08/14 09:26:50;;;;;;;0.90;0.90;;;13.60;54.90;;;;;;5049450;28;20630;-78
2022/08/14 09:29:18;;;;;;;2.50;0.90;;;13.70;54.90;;;;;;5046832;28;20189;-77
2022/08/14 09:31:50;;;;;;;2.20;0.70;;;13.70;54.90;;;;;;5044288;28;20180;-78
2022/08/14 09:35:02;;;;;;;1.20;1.10;;;13.60;55.10;;;;;;5036519;28;20220;-81
2022/08/14 09:38:10;;;;;;;1.23;1.00;;;13.50;55.90;;;;;;5022482;28;20291;-77
2022/08/14 09:40:50;;;;;;;1.50;1.10;;;13.50;55.80;;;;;;5034710;28;20273;-78
2022/08/14 09:43:29;;;;;;;0.97;0.93;;;13.40;56.20;;;;;;5046149;28;20176;-75
2022/08/14 09:45:57;;;;;;;1.57;1.10;;;13.40;56.40;;;;;;5046776;28;20188;-77
2022/08/14 09:48:27;;;;;;;2.53;1.00;;;13.30;56.50;;;;;;5031693;28;20184;-78
2022/08/14 09:50:56;;;;;;;1.70;0.90;;;13.30;57.10;;;;;;5050560;28;20179;-83
2022/08/14 09:54:19;;;;;;;1.03;1.00;;;13.20;57.40;;;;;;5045573;28;20268;-80
2022/08/14 09:56:49;;;;;;;1.20;1.10;;;13.30;57.30;;;;;;5013563;28;20189;-78
2022/08/14 09:59:21;;;;;;;1.00;1.00;;;13.20;57.30;;;;;;5033878;28;20238;-77
2022/08/14 10:01:49;;;;;;;1.23;1.10;;;13.20;56.80;;;;;;5039144;28;20194;-78
2022/08/14 10:04:23;;;;;;;1.07;0.90;;;13.20;57.00;;;;;;5025361;28;20315;-78
2022/08/14 10:06:51;;;;;;;1.97;1.30;;;13.20;56.50;;;;;;5026205;28;20266;-79
2022/08/14 10:09:19;;;;;;;2.03;1.43;;;13.10;56.70;;;;;;5051730;28;20176;-79
2022/08/14 10:11:58;;;;;;;1.30;1.20;;;13.10;57.40;;;;;;5049964;28;20180;-79
2022/08/14 10:14:31;;;;;;;3.73;1.33;;;13.00;57.30;;;;;;5053680;28;20208;-78
2022/08/14 10:17:01;;;;;;;1.20;1.10;;;13.00;57.80;;;;;;5053930;28;20274;-78
2022/08/14 10:19:29;;;;;;;1.47;1.20;;;13.00;58.10;;;;;;5043437;28;20200;-79
2022/08/14 10:22:09;;;;;;;1.33;1.23;;;12.80;58.50;;;;;;5051354;28;20258;-79
2022/08/14 10:24:45;;;;;;;1.40;1.30;;;12.80;58.50;;;;;;5031552;28;20177;-79
2022/08/14 10:27:17;;;;;;;1.20;1.10;;;12.80;58.80;;;;;;5042847;28;20183;-80
2022/08/14 10:29:58;;;;;;;1.50;1.40;;;12.80;59.00;;;;;;5031706;28;20192;-79
2022/08/14 10:32:26;;;;;;;1.50;1.30;;;12.70;59.20;;;;;;5037602;28;20187;-77
2022/08/14 10:35:06;;;;;;;1.33;1.23;;;12.70;59.30;;;;;;5035738;28;20279;-78
2022/08/14 10:37:48;;;;;;;1.27;1.17;;;12.70;59.60;;;;;;5046210;28;20693;-76
2022/08/14 10:40:27;;;;;;;1.27;1.17;;;12.70;59.80;;;;;;5048371;28;20224;-80
2022/08/14 10:42:55;;;;;;;1.23;1.13;;;12.60;60.20;;;;;;5052945;28;20230;-78
2022/08/14 10:45:33;;;;;;;1.47;1.30;;;12.60;60.60;;;;;;5042625;28;20712;-79
2022/08/14 10:48:01;;;;;;;1.20;1.10;;;12.50;60.70;;;;;;5053346;28;20703;-80
2022/08/14 10:50:33;;;;;;;1.80;1.27;;;12.50;61.00;;;;;;5053055;28;20176;-80
2022/08/14 10:53:04;;;;;;;1.80;1.60;;;12.50;61.40;;;;;;5041411;28;20204;-78
2022/08/14 10:55:38;;;;;;;1.47;1.10;;;12.40;61.50;;;;;;5044093;28;20180;-80
2022/08/14 10:58:12;;;;;;;1.30;1.20;;;12.30;61.80;;;;;;5052336;28;20522;-79
2022/08/14 11:00:53;;;;;;;2.30;1.90;;;12.30;61.60;;;;;;5046863;28;20229;-75
2022/08/14 11:03:20;;;;;;;1.63;1.53;;;12.30;61.70;;;;;;5052934;28;20172;-80
2022/08/14 11:05:50;;;;;;;1.30;1.20;;;12.30;62.00;;;;;;5052241;28;20211;-80
2022/08/14 11:08:29;;;;;;;1.27;1.17;;;12.40;61.70;;;;;;5048919;28;20327;-79
2022/08/14 11:11:00;;;;;;;1.03;0.97;;;12.50;61.30;;;;;;5045044;28;20248;-80
2022/08/14 11:13:29;;;;;;;1.37;1.27;;;12.40;61.50;;;;;;5039178;28;20778;-85
2022/08/14 11:15:59;;;;;;;0.90;0.90;;;12.40;61.30;;;;;;5045829;28;20187;-79
2022/08/14 11:18:29;;;;;;;1.60;1.20;;;12.40;61.70;;;;;;5032962;28;20187;-79
2022/08/14 11:20:59;;;;;;;1.23;1.00;;;12.40;61.90;;;;;;5032370;28;20215;-76
2022/08/14 11:23:29;;;;;;;2.23;1.37;;;12.40;62.20;;;;;;5049515;28;20195;-75
2022/08/14 11:25:59;;;;;;;0.97;0.97;;;12.30;62.20;;;;;;5052733;28;20176;-79
2022/08/14 11:28:30;;;;;;;1.37;1.10;;;12.20;62.90;;;;;;5049795;28;20180;-79
2022/08/14 11:31:00;;;;;;;1.10;1.00;;;12.30;63.00;;;;;;5030573;28;20176;-78
2022/08/14 11:33:30;;;;;;;1.30;1.20;;;12.20;63.10;;;;;;5051867;28;20238;-78
2022/08/14 11:35:59;;;;;;;1.13;1.03;;;12.30;63.00;;;;;;5043670;28;20180;-77
2022/08/14 11:38:34;;;;;;;1.23;1.13;;;12.20;63.10;;;;;;5051959;28;20191;-78
2022/08/14 11:41:02;;;;;;;2.30;1.10;;;12.20;63.30;;;;;;5049922;28;20190;-78
2022/08/14 11:43:29;;;;;;;1.30;1.20;;;12.20;63.30;;;;;;5052602;28;20176;-79
2022/08/14 11:45:57;;;;;;;1.33;1.10;;;12.20;63.60;;;;;;5038635;28;20180;-78
2022/08/14 11:48:27;;;;;;;1.43;1.30;;;12.20;63.70;;;;;;5021089;28;20208;-78
2022/08/14 11:50:54;;;;;;;1.80;1.43;;;12.20;63.70;;;;;;5034377;28;20704;-78
2022/08/14 11:53:32;;;;;;;1.30;1.20;;;12.20;64.30;;;;;;5044706;28;20214;-77
2022/08/14 11:56:03;;;;;;;1.27;1.17;;;12.20;63.80;;;;;;5029234;28;20176;-78
2022/08/14 11:58:35;;;;;;;1.10;1.00;;;12.20;63.50;;;;;;5036353;28;20271;-82
2022/08/14 12:01:05;;;;;;;0.90;0.90;;;12.30;63.20;;;;;;5042965;28;20678;-77
2022/08/14 12:03:44;;;;;;;1.90;1.80;;;12.30;63.00;;;;;;5037905;28;20234;-80
2022/08/14 12:06:17;;;;;;;1.23;1.13;;;12.30;63.20;;;;;;5034332;28;20188;-78
2022/08/14 12:08:45;;;;;;;1.40;1.20;;;12.30;63.00;;;;;;5038682;28;20212;-75
2022/08/14 12:11:15;;;;;;;1.20;1.10;;;12.30;63.20;;;;;;5055594;28;20214;-77
2022/08/14 12:13:44;;;;;;;1.80;1.70;;;12.30;63.30;;;;;;5050960;28;20618;-78
2022/08/14 12:16:17;;;;;;;2.60;1.93;;;12.20;63.40;;;;;;5045853;28;20185;-79
2022/08/14 12:18:47;;;;;;;1.20;1.10;;;12.30;63.70;;;;;;5035778;28;20188;-79
2022/08/14 12:21:16;;;;;;;1.10;1.00;;;12.20;63.60;;;;;;5045752;28;20547;-78
2022/08/14 12:23:49;;;;;;;1.23;1.00;;;12.20;63.90;;;;;;5050114;28;20191;-80
2022/08/14 12:26:19;;;;;;;2.53;1.00;;;12.20;63.90;;;;;;5048945;28;20180;-81
2022/08/14 12:29:13;;;;;;;0.93;0.90;;;12.20;63.70;;;;;;5053009;28;20179;-79
2022/08/14 12:31:42;;;;;;;1.17;0.80;;;12.20;63.80;;;;;;5053568;28;20564;-79
2022/08/14 12:34:11;;;;;;;0.80;0.80;;;12.20;63.40;;;;;;5055327;28;20299;-80
2022/08/14 12:36:39;;;;;;;0.90;0.90;;;12.30;63.60;;;;;;5047818;28;20621;-83
2022/08/14 12:39:22;;;;;;;1.10;1.00;;;12.20;63.30;;;;;;5055215;28;20738;-80
2022/08/14 12:41:55;;;;;;;1.07;0.97;;;12.20;63.90;;;;;;5055193;28;20335;-79
2022/08/14 12:44:33;;;;;;;1.20;0.83;;;12.20;64.00;;;;;;5041283;28;20187;-79
2022/08/14 12:47:11;;;;;;;2.23;0.90;;;12.00;64.00;;;;;;5040091;28;20635;-80
2022/08/14 12:49:52;;;;;;;0.80;0.80;;;12.10;64.00;;;;;;5042413;28;20180;-79
2022/08/14 12:52:34;;;;;;;0.80;0.80;;;12.00;64.30;;;;;;5049950;28;20374;-80
2022/08/14 12:55:15;;;;;;;0.90;0.90;;;12.00;64.20;;;;;;5023023;28;20180;-79
2022/08/14 12:57:45;;;;;;;1.07;1.00;;;12.00;64.40;;;;;;5034688;28;20215;-79
2022/08/14 13:00:21;;;;;;;0.80;0.80;;;12.00;64.50;;;;;;5046847;28;20202;-83
2022/08/14 13:02:50;;;;;;;1.03;0.80;;;11.90;64.80;;;;;;5042465;28;20259;-80
2022/08/14 13:05:22;;;;;;;1.00;0.90;;;11.90;64.90;;;;;;5054957;28;20175;-79
2022/08/14 13:07:50;;;;;;;0.90;0.80;;;11.90;65.00;;;;;;5043201;28;20234;-79
2022/08/14 13:10:20;;;;;;;3.33;1.13;;;11.80;65.10;;;;;;5054505;28;20183;-78
2022/08/14 13:12:50;;;;;;;0.83;0.83;;;11.80;65.10;;;;;;5054863;28;20196;-80
2022/08/14 13:15:18;;;;;;;0.93;0.87;;;11.80;65.10;;;;;;5054968;28;20230;-80
2022/08/14 13:17:51;;;;;;;0.80;0.80;;;11.80;65.00;;;;;;5049113;28;20239;-81
2022/08/14 13:20:21;;;;;;;0.90;0.90;;;11.80;65.00;;;;;;5052232;28;20236;-80
2022/08/14 13:22:49;;;;;;;2.03;1.00;;;11.80;65.00;;;;;;5054523;28;20172;-83
2022/08/14 13:25:19;;;;;;;1.30;0.90;;;11.70;65.30;;;;;;5050313;28;20185;-79